createdAt,value
2023-01-27T00:02:12.854Z,102429.66
2023-01-27T00:04:39.740Z,102437.59
2023-01-27T00:07:13.415Z,102441.06
2023-01-27T00:09:41.950Z,102429.69
2023-01-27T00:12:44.542Z,102439.34
2023-01-27T00:15:12.991Z,102428.88
2023-01-27T00:17:46.506Z,102429.84
2023-01-27T00:20:13.651Z,102439.41
2023-01-27T00:23:06.497Z,102434.13
2023-01-27T00:25:33.267Z,102437.69
2023-01-27T00:28:06.505Z,102438.53
2023-01-27T00:30:33.242Z,102448.25
2023-01-27T00:33:25.514Z,102443.00
2023-01-27T00:36:08.502Z,102436.03
2023-01-27T00:38:42.032Z,102456.16
2023-01-27T00:41:27.479Z,102439.59
2023-01-27T00:43:54.732Z,102445.69
2023-01-27T00:46:31.531Z,102458.88
2023-01-27T00:49:04.604Z,102451.03
2023-01-27T00:51:31.322Z,102452.88
2023-01-27T00:54:05.597Z,102461.66
2023-01-27T00:56:45.543Z,102467.03
2023-01-27T00:59:18.539Z,102472.34
2023-01-27T01:01:45.165Z,102461.84
2023-01-27T01:04:18.579Z,102463.66
2023-01-27T01:06:51.486Z,102479.50
2023-01-27T01:09:18.147Z,102480.44
2023-01-27T01:11:51.537Z,102470.84
2023-01-27T01:14:18.208Z,102483.16
2023-01-27T01:16:51.544Z,102474.41
2023-01-27T01:19:18.201Z,102476.22
2023-01-27T01:21:51.586Z,102482.31
2023-01-27T01:24:18.359Z,102488.50
2023-01-27T01:26:51.531Z,102489.44
2023-01-27T01:29:18.373Z,102485.03
2023-01-27T01:31:51.575Z,102486.78
2023-01-27T01:34:24.550Z,102499.94
2023-01-27T01:36:51.299Z,102496.38
2023-01-27T01:39:24.535Z,102496.47
2023-01-27T01:41:57.562Z,102489.44
2023-01-27T01:44:33.518Z,102490.31
2023-01-27T01:47:00.392Z,102492.06
2023-01-27T01:49:39.537Z,102492.13
2023-01-27T01:52:18.280Z,102492.94
2023-01-27T01:54:57.555Z,102506.09
2023-01-27T01:57:49.577Z,102501.72
2023-01-27T02:00:23.500Z,102497.34
2023-01-27T02:02:51.627Z,102497.25
2023-01-27T02:05:31.500Z,102502.53
2023-01-27T02:08:05.356Z,102503.41
2023-01-27T02:10:40.667Z,102493.81
2023-01-27T02:13:07.452Z,102498.13
2023-01-27T02:15:41.614Z,102503.41
2023-01-27T02:18:08.667Z,102499.88
2023-01-27T02:20:53.610Z,102504.28
2023-01-27T02:23:48.330Z,102496.38
2023-01-27T02:26:36.550Z,102490.25
2023-01-27T02:29:13.569Z,102501.66
2023-01-27T02:31:47.662Z,102503.34
2023-01-27T02:34:24.618Z,102499.84
2023-01-27T02:37:02.561Z,102502.47
2023-01-27T02:39:44.654Z,102491.06
2023-01-27T02:42:20.543Z,102494.47
2023-01-27T02:44:47.334Z,102502.38
2023-01-27T02:47:20.659Z,102504.09
2023-01-27T02:49:53.550Z,102508.47
2023-01-27T02:52:27.605Z,102510.22
2023-01-27T02:55:00.635Z,102509.34
2023-01-27T02:57:34.018Z,102517.19
2023-01-27T03:00:07.926Z,102504.94
2023-01-27T03:02:41.655Z,102511.97
2023-01-27T03:05:08.746Z,102509.28
2023-01-27T03:07:35.375Z,102515.47
2023-01-27T03:10:08.586Z,102513.72
2023-01-27T03:12:35.311Z,102511.09
2023-01-27T03:15:27.674Z,102514.72
2023-01-27T03:18:13.482Z,102522.63
2023-01-27T03:20:47.740Z,102518.25
2023-01-27T03:23:16.465Z,102520.94
2023-01-27T03:25:51.569Z,102520.03
2023-01-27T03:28:18.427Z,102517.41
2023-01-27T03:30:45.389Z,102522.69
2023-01-27T03:33:18.594Z,102522.69
2023-01-27T03:36:10.585Z,102520.09
2023-01-27T03:38:55.874Z,102522.78
2023-01-27T03:41:47.598Z,102516.66
2023-01-27T03:44:39.626Z,102531.50
2023-01-27T03:47:12.612Z,102530.69
2023-01-27T03:49:39.346Z,102528.91
2023-01-27T03:52:12.594Z,102528.91
2023-01-27T03:54:45.530Z,102520.19
2023-01-27T03:57:25.630Z,102522.78
2023-01-27T03:59:58.667Z,102527.16
2023-01-27T04:02:43.777Z,102530.69
2023-01-27T04:05:35.672Z,102521.97
2023-01-27T04:08:08.570Z,102526.28
2023-01-27T04:10:35.417Z,102533.28
2023-01-27T04:13:08.603Z,102529.78
2023-01-27T04:15:41.696Z,102528.03
2023-01-27T04:18:08.323Z,102517.53
2023-01-27T04:20:41.628Z,102521.00
2023-01-27T04:23:08.359Z,102522.78
2023-01-27T04:25:41.811Z,102526.28
2023-01-27T04:28:14.573Z,102526.19
2023-01-27T04:30:47.677Z,102521.88
2023-01-27T04:33:15.908Z,102527.94
2023-01-27T04:35:52.607Z,102529.72
2023-01-27T04:38:25.669Z,102520.19
2023-01-27T04:40:58.614Z,102535.94
2023-01-27T04:43:31.616Z,102541.34
2023-01-27T04:45:58.324Z,102544.09
2023-01-27T04:48:31.628Z,102536.31
2023-01-27T04:50:58.268Z,102532.94
2023-01-27T04:53:38.592Z,102534.84
2023-01-27T04:56:22.755Z,102542.84
2023-01-27T04:58:56.643Z,102541.16
2023-01-27T05:01:23.281Z,102535.16
2023-01-27T05:03:49.925Z,102538.75
2023-01-27T05:06:23.671Z,102549.22
2023-01-27T05:08:50.981Z,102555.34
2023-01-27T05:11:18.586Z,102551.81
2023-01-27T05:13:52.612Z,102545.63
2023-01-27T05:16:24.613Z,102544.75
2023-01-27T05:18:59.589Z,102543.06
2023-01-27T05:21:37.601Z,102548.19
2023-01-27T05:24:04.547Z,102547.34
2023-01-27T05:26:37.635Z,102545.63
2023-01-27T05:29:04.299Z,102547.38
2023-01-27T05:31:38.711Z,102543.97
2023-01-27T05:34:11.618Z,102551.06
2023-01-27T05:36:44.650Z,102556.34
2023-01-27T05:39:12.001Z,102564.22
2023-01-27T05:41:45.655Z,102569.44
2023-01-27T05:44:25.636Z,102570.25
2023-01-27T05:46:52.299Z,102563.22
2023-01-27T05:49:25.632Z,102571.16
2023-01-27T05:51:58.671Z,102567.69
2023-01-27T05:54:25.313Z,102568.59
2023-01-27T05:57:05.665Z,102568.66
2023-01-27T05:59:32.257Z,102575.69
2023-01-27T06:02:05.722Z,102574.00
2023-01-27T06:04:32.422Z,102573.22
2023-01-27T06:07:05.642Z,102583.81
2023-01-27T06:09:38.613Z,102595.25
2023-01-27T06:12:11.568Z,102585.59
2023-01-27T06:14:38.151Z,102589.09
2023-01-27T06:17:11.648Z,102593.41
2023-01-27T06:19:44.631Z,102581.97
2023-01-27T06:22:17.726Z,102598.63
2023-01-27T06:24:44.347Z,102588.06
2023-01-27T06:27:17.637Z,102586.31
2023-01-27T06:29:50.731Z,102590.66
2023-01-27T06:32:17.428Z,102595.84
2023-01-27T06:34:50.647Z,102592.34
2023-01-27T06:37:17.432Z,102602.78
2023-01-27T06:39:50.633Z,102601.91
2023-01-27T06:42:23.688Z,102604.63
2023-01-27T06:44:50.275Z,102613.22
2023-01-27T06:47:23.622Z,102614.94
2023-01-27T06:49:50.192Z,102620.25
2023-01-27T06:52:23.630Z,102626.34
2023-01-27T06:54:50.287Z,102627.19
2023-01-27T06:57:29.645Z,102610.50
2023-01-27T06:59:56.587Z,102622.75
2023-01-27T07:02:29.770Z,102628.03
2023-01-27T07:04:56.552Z,102630.66
2023-01-27T07:07:29.629Z,102624.47
2023-01-27T07:10:02.704Z,102635.94
2023-01-27T07:12:29.723Z,102642.94
2023-01-27T07:15:02.714Z,102644.72
2023-01-27T07:17:29.461Z,102651.75
2023-01-27T07:20:02.733Z,102659.69
2023-01-27T07:22:29.574Z,102651.84
2023-01-27T07:25:02.667Z,102670.19
2023-01-27T07:27:29.674Z,102658.84
2023-01-27T07:30:02.670Z,102667.56
2023-01-27T07:32:35.694Z,102658.81
2023-01-27T07:35:08.768Z,102661.44
2023-01-27T07:37:37.365Z,102660.56
2023-01-27T07:40:12.045Z,102671.09
2023-01-27T07:42:46.712Z,102671.09
2023-01-27T07:45:26.698Z,102664.06
2023-01-27T07:47:59.676Z,102671.97
2023-01-27T07:50:33.739Z,102673.72
2023-01-27T07:55:43.706Z,102675.47
2023-01-27T07:58:23.698Z,102684.19
2023-01-27T08:00:50.362Z,102682.44
2023-01-27T08:03:33.822Z,102689.41
2023-01-27T08:06:05.903Z,102696.44
2023-01-27T08:08:38.663Z,102692.94
2023-01-27T08:11:10.795Z,102700.84
2023-01-27T08:13:44.746Z,102704.31
2023-01-27T08:16:14.603Z,102687.59
2023-01-27T08:18:47.666Z,102698.06
2023-01-27T08:21:14.311Z,102690.16
2023-01-27T08:23:40.966Z,102684.00
2023-01-27T08:26:14.705Z,102697.03
2023-01-27T08:28:41.579Z,102686.47
2023-01-27T08:31:18.738Z,102694.22
2023-01-27T08:33:50.642Z,102694.19
2023-01-27T08:36:25.684Z,102704.56
2023-01-27T08:38:58.656Z,102697.63
2023-01-27T08:41:33.708Z,102704.50
2023-01-27T08:44:00.463Z,102683.44
2023-01-27T08:46:33.706Z,102684.28
2023-01-27T08:49:06.696Z,102692.16
2023-01-27T08:51:39.722Z,102700.06
2023-01-27T08:54:13.738Z,102698.34
2023-01-27T08:56:53.696Z,102705.34
2023-01-27T08:59:33.752Z,102702.75
2023-01-27T09:02:06.749Z,102712.38
2023-01-27T09:04:39.719Z,102712.41
2023-01-27T09:07:12.720Z,102718.50
2023-01-27T09:09:39.362Z,102717.59
2023-01-27T09:12:12.764Z,102728.91
2023-01-27T09:14:46.691Z,102732.34
2023-01-27T09:17:23.743Z,102733.06
2023-01-27T09:19:50.598Z,102728.72
2023-01-27T09:22:23.706Z,102737.25
2023-01-27T09:24:56.679Z,102729.00
2023-01-27T09:27:37.239Z,102734.63
2023-01-27T09:30:13.044Z,102733.47
2023-01-27T09:32:40.660Z,102736.75
2023-01-27T09:35:15.284Z,102739.22
2023-01-27T09:37:53.714Z,102742.63
2023-01-27T09:40:38.755Z,102736.50
2023-01-27T09:43:19.550Z,102734.41
2023-01-27T09:46:26.740Z,102736.09
2023-01-27T09:49:14.541Z,102745.09
2023-01-27T09:51:57.798Z,102737.56
2023-01-27T09:54:45.928Z,102743.69
2023-01-27T09:57:59.769Z,102740.34
2023-01-27T10:00:49.013Z,102765.25
2023-01-27T10:03:40.761Z,102755.94
2023-01-27T10:06:10.581Z,102756.06
2023-01-27T10:09:31.789Z,102753.56
2023-01-27T10:12:14.613Z,102748.59
2023-01-27T10:14:57.715Z,102757.38
2023-01-27T10:17:43.986Z,102753.09
2023-01-27T10:20:32.751Z,102751.41
2023-01-27T10:23:11.505Z,102750.56
2023-01-27T10:25:55.725Z,102747.31
2023-01-27T10:28:24.424Z,102751.75
2023-01-27T10:31:07.791Z,102746.31
2023-01-27T10:33:54.045Z,102750.56
2023-01-27T10:37:06.762Z,102750.53
2023-01-27T10:39:56.698Z,102742.63
2023-01-27T10:42:23.207Z,102745.25
2023-01-27T10:45:14.693Z,102747.84
2023-01-27T10:48:13.792Z,102748.72
2023-01-27T10:50:43.228Z,102746.00
2023-01-27T10:53:44.845Z,102748.63
2023-01-27T10:56:28.793Z,102755.59
2023-01-27T10:59:12.705Z,102733.59
2023-01-27T11:01:46.777Z,102751.91
2023-01-27T11:04:47.741Z,102744.72
2023-01-27T11:07:21.624Z,102749.81
2023-01-27T11:10:08.825Z,102754.16
2023-01-27T11:12:41.577Z,102750.59
2023-01-27T11:15:31.699Z,102751.38
2023-01-27T11:18:04.589Z,102753.16
2023-01-27T11:20:41.771Z,102746.25
2023-01-27T11:23:18.593Z,102751.66
2023-01-27T11:26:03.756Z,102748.19
2023-01-27T11:28:42.835Z,102744.84
2023-01-27T11:31:38.950Z,102745.78
2023-01-27T11:34:40.131Z,102743.22
2023-01-27T11:37:33.777Z,102736.38
2023-01-27T11:40:01.351Z,102734.78
2023-01-27T11:42:40.755Z,102745.44
2023-01-27T11:45:13.577Z,102722.75
2023-01-27T11:47:48.775Z,102736.75
2023-01-27T11:50:28.574Z,102723.66
2023-01-27T11:53:11.720Z,102723.72
2023-01-27T11:55:46.096Z,102725.56
2023-01-27T11:58:49.805Z,102712.47
2023-01-27T12:01:24.105Z,102726.38
2023-01-27T12:04:26.813Z,102719.34
2023-01-27T12:07:05.814Z,102715.81
2023-01-27T12:09:41.813Z,102706.13
2023-01-27T12:12:28.792Z,102719.28
2023-01-27T12:15:06.885Z,102713.19
2023-01-27T12:17:40.347Z,102707.94
2023-01-27T12:20:53.813Z,102699.19
2023-01-27T12:23:34.749Z,102698.31
2023-01-27T12:26:04.811Z,102699.19
2023-01-27T12:28:58.739Z,102700.13
2023-01-27T12:31:37.864Z,102707.09
2023-01-27T12:34:33.826Z,102692.16
2023-01-27T12:37:07.796Z,102691.31
2023-01-27T12:39:42.072Z,102702.66
2023-01-27T12:42:43.779Z,102700.03
2023-01-27T12:45:31.751Z,102695.66
2023-01-27T12:48:11.729Z,102708.81
2023-01-27T12:50:47.741Z,102714.97
2023-01-27T12:53:27.082Z,102693.97
2023-01-27T12:55:59.884Z,102707.91
2023-01-27T12:58:46.798Z,102706.94
2023-01-27T13:01:44.878Z,102691.16
2023-01-27T13:04:21.960Z,102695.53
2023-01-27T13:07:00.760Z,102706.00
2023-01-27T13:09:52.801Z,102700.81
2023-01-27T13:12:24.038Z,102701.66
2023-01-27T13:15:27.865Z,102699.97
2023-01-27T13:18:03.811Z,102700.88
2023-01-27T13:20:57.848Z,102702.75
2023-01-27T13:23:32.621Z,102701.66
2023-01-27T13:26:11.836Z,102705.09
2023-01-27T13:29:00.115Z,102698.09
2023-01-27T13:31:45.976Z,102707.72
2023-01-27T13:34:38.744Z,102702.56
2023-01-27T13:37:30.864Z,102708.56
2023-01-27T13:40:29.854Z,102708.53
2023-01-27T13:43:30.913Z,102699.63
2023-01-27T13:46:17.358Z,102702.28
2023-01-27T13:48:55.837Z,102701.41
2023-01-27T13:51:25.440Z,102708.44
2023-01-27T13:54:05.814Z,102701.53
2023-01-27T13:57:12.806Z,102705.09
2023-01-27T14:00:14.226Z,102712.97
2023-01-27T14:03:24.890Z,102720.94
2023-01-27T14:06:11.840Z,102711.38
2023-01-27T14:08:57.836Z,102717.53
2023-01-27T14:11:35.316Z,102721.09
2023-01-27T14:14:26.812Z,102721.97
2023-01-27T14:17:12.177Z,102725.41
2023-01-27T14:20:03.799Z,102716.69
2023-01-27T14:23:05.915Z,102727.03
2023-01-27T14:26:06.920Z,102727.91
2023-01-27T14:29:04.892Z,102727.91
2023-01-27T14:31:44.359Z,102734.13
2023-01-27T14:34:35.803Z,102720.09
2023-01-27T14:37:24.876Z,102727.25
2023-01-27T14:40:19.803Z,102725.56
2023-01-27T14:43:13.641Z,102724.00
2023-01-27T14:45:53.835Z,102707.53
2023-01-27T14:48:55.886Z,102736.25
2023-01-27T14:51:37.872Z,102746.84
2023-01-27T14:54:44.831Z,102740.75
2023-01-27T14:57:57.922Z,102745.19
2023-01-27T15:00:51.951Z,102740.03
2023-01-27T15:03:37.464Z,102740.94
2023-01-27T15:06:28.875Z,102747.97
2023-01-27T15:09:07.956Z,102744.56
2023-01-27T15:11:56.897Z,102739.31
2023-01-27T15:15:03.892Z,102747.19
2023-01-27T15:17:55.892Z,102760.41
2023-01-27T15:20:28.571Z,102745.59
2023-01-27T15:23:28.943Z,102764.91
2023-01-27T15:26:01.368Z,102770.22
2023-01-27T15:28:39.909Z,102758.97
2023-01-27T15:31:23.085Z,102754.66
2023-01-27T15:34:11.904Z,102765.91
2023-01-27T15:36:46.924Z,102774.75
2023-01-27T15:39:21.861Z,102780.13
2023-01-27T15:42:17.366Z,102774.00
2023-01-27T15:45:01.550Z,102774.88
2023-01-27T15:47:39.991Z,102775.78
2023-01-27T15:50:36.973Z,102788.19
2023-01-27T15:53:19.901Z,102779.44
2023-01-27T15:56:01.918Z,102782.13
2023-01-27T15:58:46.217Z,102783.03
2023-01-27T16:01:40.882Z,102783.06
2023-01-27T16:04:16.894Z,102785.78
2023-01-27T16:07:27.871Z,102782.38
2023-01-27T16:09:55.540Z,102782.38
2023-01-27T16:12:34.874Z,102783.22
2023-01-27T16:15:01.480Z,102785.88
2023-01-27T16:17:40.902Z,102779.81
2023-01-27T16:20:32.964Z,102786.78
2023-01-27T16:23:27.909Z,102791.22
2023-01-27T16:26:08.758Z,102785.06
2023-01-27T16:28:43.903Z,102786.06
2023-01-27T16:31:16.740Z,102799.81
2023-01-27T16:33:55.969Z,102793.09
2023-01-27T16:36:37.922Z,102800.50
2023-01-27T16:39:42.889Z,102796.81
2023-01-27T16:42:14.693Z,102812.84
2023-01-27T16:44:49.912Z,102804.31
2023-01-27T16:47:41.451Z,102811.38
2023-01-27T16:50:38.915Z,102813.19
2023-01-27T16:53:15.653Z,102821.22
2023-01-27T16:56:13.921Z,102822.97
2023-01-27T16:58:50.090Z,102819.53
2023-01-27T17:01:36.881Z,102825.72
2023-01-27T17:04:19.510Z,102836.25
2023-01-27T17:06:54.057Z,102831.88
2023-01-27T17:09:38.918Z,102826.69
2023-01-27T17:12:27.288Z,102832.81
2023-01-27T17:15:00.952Z,102834.63
2023-01-27T17:17:38.984Z,102835.50
2023-01-27T17:20:07.898Z,102824.19
2023-01-27T17:23:04.030Z,102833.78
2023-01-27T17:25:42.965Z,102830.28
2023-01-27T17:28:17.160Z,102837.28
2023-01-27T17:30:52.984Z,102837.25
2023-01-27T17:33:27.912Z,102835.50
2023-01-27T17:36:04.944Z,102840.78
2023-01-27T17:38:49.661Z,102846.84
2023-01-27T17:41:40.963Z,102843.38
2023-01-27T17:44:13.661Z,102849.50
2023-01-27T17:46:47.958Z,102841.63
2023-01-27T17:49:18.906Z,102846.06
2023-01-27T17:51:55.982Z,102848.69
2023-01-27T17:54:41.977Z,102855.75
2023-01-27T17:57:32.836Z,102855.75
2023-01-27T18:00:17.939Z,102846.22
2023-01-27T18:03:20.934Z,102857.56
2023-01-27T18:05:56.974Z,102855.03
2023-01-27T18:08:23.763Z,102865.50
2023-01-27T18:10:58.118Z,102869.06
2023-01-27T18:13:33.944Z,102868.09
2023-01-27T18:16:19.583Z,102876.00
2023-01-27T18:18:53.992Z,102878.69
2023-01-27T18:21:31.907Z,102880.47
2023-01-27T18:24:05.940Z,102875.28
2023-01-27T18:26:40.692Z,102883.16
2023-01-27T18:29:19.918Z,102886.69
2023-01-27T18:31:58.366Z,102889.31
2023-01-27T18:34:38.005Z,102887.56
2023-01-27T18:37:27.985Z,102881.44
2023-01-27T18:40:02.948Z,102894.66
2023-01-27T18:42:38.023Z,102872.78
2023-01-27T18:45:12.647Z,102895.50
2023-01-27T18:47:45.943Z,102902.56
2023-01-27T18:50:30.740Z,102892.84
2023-01-27T18:53:03.950Z,102892.00
2023-01-27T18:55:37.013Z,102898.16
2023-01-27T18:58:19.004Z,102895.63
2023-01-27T19:00:51.045Z,102895.66
2023-01-27T19:03:31.028Z,102901.84
2023-01-27T19:05:57.871Z,102901.03
2023-01-27T19:08:31.979Z,102897.63
2023-01-27T19:10:58.626Z,102904.56
2023-01-27T19:13:32.028Z,102912.47
2023-01-27T19:15:59.878Z,102912.50
2023-01-27T19:18:39.008Z,102908.16
2023-01-27T19:21:12.969Z,102905.53
2023-01-27T19:23:48.353Z,102913.50
2023-01-27T19:26:24.959Z,102899.50
2023-01-27T19:28:55.050Z,102913.44
2023-01-27T19:31:28.970Z,102920.50
2023-01-27T19:34:02.021Z,102907.38
2023-01-27T19:36:41.110Z,102916.13
2023-01-27T19:39:13.977Z,102913.53
2023-01-27T19:41:47.968Z,102911.78
2023-01-27T19:44:15.565Z,102916.22
2023-01-27T19:46:48.976Z,102917.97
2023-01-27T19:49:19.796Z,102917.94
2023-01-27T19:51:52.945Z,102912.75
2023-01-27T19:54:25.958Z,102926.72
2023-01-27T19:56:59.233Z,102925.88
2023-01-27T19:59:32.547Z,102925.84
2023-01-27T20:02:06.132Z,102921.50
2023-01-27T20:04:33.413Z,102924.16
2023-01-27T20:07:06.973Z,102916.25
2023-01-27T20:09:40.067Z,102913.66
2023-01-27T20:12:15.060Z,102915.41
2023-01-27T20:14:48.987Z,102921.53
2023-01-27T20:17:15.660Z,102923.31
2023-01-27T20:19:49.032Z,102922.44
2023-01-27T20:22:15.669Z,102923.31
2023-01-27T20:24:48.994Z,102923.34
2023-01-27T20:27:15.695Z,102915.41
2023-01-27T20:29:49.063Z,102919.00
2023-01-27T20:32:16.131Z,102914.56
2023-01-27T20:34:48.997Z,102911.13
2023-01-27T20:37:15.982Z,102901.53
2023-01-27T20:39:49.034Z,102904.19
2023-01-27T20:42:22.110Z,102908.50
2023-01-27T20:44:54.924Z,102912.94
2023-01-27T20:47:28.009Z,102901.59
2023-01-27T20:49:54.649Z,102901.53
2023-01-27T20:52:21.502Z,102912.06
2023-01-27T20:54:55.032Z,102919.97
2023-01-27T20:57:30.076Z,102920.84
2023-01-27T21:00:11.051Z,102920.84
2023-01-27T21:02:37.836Z,102916.47
2023-01-27T21:05:11.185Z,102926.13
2023-01-27T21:07:38.087Z,102915.59
2023-01-27T21:10:11.989Z,102926.13
2023-01-27T21:12:38.935Z,102915.66
2023-01-27T21:15:16.454Z,102917.41
2023-01-27T21:17:50.026Z,102914.78
2023-01-27T21:20:17.044Z,102919.16
2023-01-27T21:22:52.031Z,102919.19
2023-01-27T21:25:19.390Z,102902.63
2023-01-27T21:27:55.004Z,102912.19
2023-01-27T21:30:21.658Z,102914.00
2023-01-27T21:32:55.001Z,102910.44
2023-01-27T21:35:28.069Z,102904.38
2023-01-27T21:38:01.015Z,102907.88
2023-01-27T21:40:34.021Z,102899.06
2023-01-27T21:43:26.115Z,102898.22
2023-01-27T21:46:00.096Z,102900.88
2023-01-27T21:48:33.121Z,102895.63
2023-01-27T21:50:59.789Z,102894.78
2023-01-27T21:53:33.051Z,102888.66
2023-01-27T21:56:07.707Z,102891.28
2023-01-27T21:58:48.041Z,102894.81
2023-01-27T22:01:14.829Z,102892.19
2023-01-27T22:03:48.010Z,102886.94
2023-01-27T22:06:15.568Z,102887.00
2023-01-27T22:08:48.991Z,102880.06
2023-01-27T22:11:15.707Z,102869.56
2023-01-27T22:13:42.385Z,102873.00
2023-01-27T22:16:21.031Z,102884.44
2023-01-27T22:18:47.833Z,102893.22
2023-01-27T22:21:21.203Z,102879.22
2023-01-27T22:23:48.213Z,102887.94
2023-01-27T22:26:22.085Z,102887.97
2023-01-27T22:28:48.957Z,102895.88
2023-01-27T22:31:22.039Z,102884.50
2023-01-27T22:33:48.849Z,102889.72
2023-01-27T22:36:22.136Z,102893.28
2023-01-27T22:38:55.123Z,102886.31
2023-01-27T22:41:28.142Z,102884.53
2023-01-27T22:44:01.158Z,102882.84
2023-01-27T22:46:34.071Z,102892.44
2023-01-27T22:49:07.130Z,102884.53
2023-01-27T22:51:33.938Z,102887.22
2023-01-27T22:54:07.183Z,102893.38
2023-01-27T22:56:33.995Z,102904.81
2023-01-27T22:59:15.196Z,102899.56
2023-01-27T23:01:42.055Z,102899.59
2023-01-27T23:04:18.111Z,102891.72
2023-01-27T23:06:44.892Z,102895.22
2023-01-27T23:09:19.145Z,102889.13
2023-01-27T23:11:46.186Z,102891.72
2023-01-27T23:14:19.159Z,102896.13
2023-01-27T23:16:46.156Z,102890.84
2023-01-27T23:19:12.997Z,102888.25
2023-01-27T23:21:46.158Z,102884.75
2023-01-27T23:24:14.475Z,102886.50
2023-01-27T23:26:48.212Z,102886.50
2023-01-27T23:29:24.112Z,102881.25
2023-01-27T23:31:59.282Z,102885.66
2023-01-27T23:34:26.179Z,102883.88
2023-01-27T23:36:59.177Z,102878.66
2023-01-27T23:39:25.952Z,102885.66
2023-01-27T23:41:59.164Z,102884.81
2023-01-27T23:44:25.932Z,102886.59
2023-01-27T23:46:59.110Z,102889.22
2023-01-27T23:49:25.927Z,102875.22
2023-01-27T23:51:59.207Z,102870.81
2023-01-27T23:54:25.952Z,102875.25
2023-01-27T23:56:52.789Z,102879.66
2023-01-27T23:59:26.097Z,102883.19
